createdAt,value
2018-06-27T00:02:05.903Z,33.22
2018-06-27T00:04:34.890Z,33.49
2018-06-27T00:07:03.883Z,33.63
2018-06-27T00:09:32.790Z,33.16
2018-06-27T00:12:02.029Z,33.06
2018-06-27T00:14:31.006Z,33.35
2018-06-27T00:17:00.083Z,33.24
2018-06-27T00:19:29.151Z,33.29
2018-06-27T00:21:58.005Z,33.28
2018-06-27T00:24:27.932Z,33.47
2018-06-27T00:26:57.063Z,33.18
2018-06-27T00:29:26.017Z,33.48
2018-06-27T00:31:54.959Z,33.69
2018-06-27T00:34:23.838Z,33.01
2018-06-27T00:36:52.998Z,33.17
2018-06-27T00:39:21.964Z,32.99
2018-06-27T00:41:51.129Z,33.66
2018-06-27T00:44:20.227Z,33.27
2018-06-27T00:46:49.353Z,33.03
2018-06-27T00:49:18.459Z,33.57
2018-06-27T00:51:47.483Z,33.55
2018-06-27T00:54:16.411Z,33.21
2018-06-27T00:56:45.353Z,33.53
2018-06-27T00:59:14.202Z,33.54
2018-06-27T01:01:43.341Z,33.64
2018-06-27T01:04:12.664Z,33.14
2018-06-27T01:06:41.535Z,32.99
2018-06-27T01:09:11.293Z,33.51
2018-06-27T01:11:40.294Z,32.80
2018-06-27T01:14:09.306Z,33.41
2018-06-27T01:16:38.786Z,33.58
2018-06-27T01:19:07.738Z,32.96
2018-06-27T01:21:36.714Z,33.05
2018-06-27T01:24:05.765Z,33.53
2018-06-27T01:26:34.819Z,33.66
2018-06-27T01:29:03.905Z,33.81
2018-06-27T01:31:32.857Z,33.10
2018-06-27T01:34:01.699Z,33.61
2018-06-27T01:36:30.583Z,33.62
2018-06-27T01:38:59.452Z,33.27
2018-06-27T01:41:28.625Z,33.62
2018-06-27T01:43:57.412Z,33.65
2018-06-27T01:46:26.351Z,33.57
2018-06-27T01:48:55.298Z,33.51
2018-06-27T01:51:24.251Z,33.64
2018-06-27T01:53:53.333Z,33.55
2018-06-27T01:56:22.336Z,33.02
2018-06-27T01:58:51.277Z,33.18
2018-06-27T02:01:20.469Z,33.01
2018-06-27T02:03:49.527Z,33.09
2018-06-27T02:06:18.609Z,33.75
2018-06-27T02:08:47.701Z,32.95
2018-06-27T02:11:17.064Z,33.23
2018-06-27T02:13:46.196Z,33.64
2018-06-27T02:16:15.154Z,33.58
2018-06-27T02:18:44.068Z,33.56
2018-06-27T02:21:13.054Z,33.47
2018-06-27T02:23:42.043Z,33.33
2018-06-27T02:26:10.972Z,33.62
2018-06-27T02:28:40.852Z,32.99
2018-06-27T02:31:09.995Z,33.49
2018-06-27T02:33:38.811Z,32.99
2018-06-27T02:36:07.828Z,33.64
2018-06-27T02:38:36.862Z,33.48
2018-06-27T02:41:05.814Z,33.55
2018-06-27T02:43:34.763Z,33.04
2018-06-27T02:46:03.657Z,33.38
2018-06-27T02:48:32.598Z,33.59
2018-06-27T02:51:01.638Z,33.05
2018-06-27T02:53:34.767Z,33.32
2018-06-27T02:56:03.926Z,33.36
2018-06-27T02:58:32.974Z,33.51
2018-06-27T03:01:02.810Z,33.05
2018-06-27T03:03:31.979Z,33.44
2018-06-27T03:06:00.930Z,32.91
2018-06-27T03:08:29.947Z,33.29
2018-06-27T03:10:59.012Z,32.93
2018-06-27T03:13:28.035Z,33.44
2018-06-27T03:15:58.931Z,33.54
2018-06-27T03:18:27.936Z,32.87
2018-06-27T03:20:56.757Z,32.78
2018-06-27T03:23:25.850Z,32.74
2018-06-27T03:25:54.955Z,33.15
2018-06-27T03:28:23.790Z,33.33
2018-06-27T03:30:52.595Z,33.35
2018-06-27T03:33:21.767Z,33.45
2018-06-27T03:35:50.801Z,33.27
2018-06-27T03:38:19.960Z,32.99
2018-06-27T03:40:48.982Z,32.69
2018-06-27T03:43:17.882Z,33.38
2018-06-27T03:45:46.888Z,33.10
2018-06-27T03:48:15.792Z,32.81
2018-06-27T03:50:44.930Z,33.21
2018-06-27T03:53:13.812Z,33.01
2018-06-27T03:55:42.862Z,32.78
2018-06-27T03:58:11.846Z,32.46
2018-06-27T04:00:40.969Z,32.54
2018-06-27T04:03:09.920Z,33.04
2018-06-27T04:05:38.829Z,33.16
2018-06-27T04:08:07.829Z,32.72
2018-06-27T04:10:36.829Z,33.01
2018-06-27T04:13:06.260Z,32.33
2018-06-27T04:15:37.302Z,32.91
2018-06-27T04:18:06.514Z,32.97
2018-06-27T04:20:35.578Z,32.88
2018-06-27T04:23:04.632Z,32.17
2018-06-27T04:25:33.620Z,32.89
2018-06-27T04:28:02.814Z,32.92
2018-06-27T04:30:31.803Z,32.68
2018-06-27T04:33:01.001Z,32.71
2018-06-27T04:35:29.801Z,32.42
2018-06-27T04:37:58.750Z,32.15
2018-06-27T04:40:27.876Z,32.68
2018-06-27T04:42:56.820Z,32.64
2018-06-27T04:45:25.718Z,32.62
2018-06-27T04:47:54.763Z,31.94
2018-06-27T04:50:23.770Z,32.51
2018-06-27T04:52:52.743Z,32.02
2018-06-27T04:55:21.841Z,31.81
2018-06-27T04:57:50.770Z,32.61
2018-06-27T05:00:19.861Z,32.42
2018-06-27T05:02:48.868Z,31.94
2018-06-27T05:05:18.462Z,32.58
2018-06-27T05:07:47.525Z,32.29
2018-06-27T05:10:16.421Z,32.38
2018-06-27T05:12:45.521Z,32.32
2018-06-27T05:15:14.523Z,31.76
2018-06-27T05:17:43.648Z,32.25
2018-06-27T05:20:12.607Z,31.60
2018-06-27T05:22:41.493Z,32.37
2018-06-27T05:25:10.530Z,32.14
2018-06-27T05:27:39.774Z,32.37
2018-06-27T05:30:08.985Z,32.07
2018-06-27T05:32:38.177Z,32.03
2018-06-27T05:35:07.136Z,31.75
2018-06-27T05:37:36.083Z,31.73
2018-06-27T05:40:05.226Z,32.14
2018-06-27T05:42:34.154Z,31.68
2018-06-27T05:45:03.235Z,31.78
2018-06-27T05:47:32.310Z,31.40
2018-06-27T05:50:01.451Z,32.07
2018-06-27T05:52:30.337Z,32.13
2018-06-27T05:55:04.099Z,32.11
2018-06-27T05:57:33.092Z,31.68
2018-06-27T06:00:02.070Z,32.00
2018-06-27T06:02:31.130Z,31.52
2018-06-27T06:05:00.038Z,31.44
2018-06-27T06:07:28.849Z,32.17
2018-06-27T06:09:57.629Z,32.70
2018-06-27T06:12:26.417Z,32.22
2018-06-27T06:14:55.616Z,32.50
2018-06-27T06:17:24.449Z,32.47
2018-06-27T06:19:53.281Z,32.87
2018-06-27T06:22:21.974Z,32.94
2018-06-27T06:24:50.780Z,32.48
2018-06-27T06:27:19.508Z,32.52
2018-06-27T06:29:48.267Z,32.67
2018-06-27T06:32:17.409Z,32.66
2018-06-27T06:34:46.581Z,33.33
2018-06-27T06:37:15.567Z,32.88
2018-06-27T06:39:44.446Z,32.52
2018-06-27T06:42:13.719Z,32.66
2018-06-27T06:44:42.860Z,33.13
2018-06-27T06:47:11.742Z,32.76
2018-06-27T06:49:40.454Z,32.59
2018-06-27T06:52:09.403Z,32.83
2018-06-27T06:54:38.161Z,33.20
2018-06-27T06:57:06.888Z,33.71
2018-06-27T06:59:35.778Z,33.26
2018-06-27T07:02:04.659Z,33.60
2018-06-27T07:04:33.467Z,32.99
2018-06-27T07:07:02.513Z,33.21
2018-06-27T07:09:31.467Z,33.22
2018-06-27T07:12:00.468Z,32.53
2018-06-27T07:14:29.483Z,32.55
2018-06-27T07:16:58.321Z,33.02
2018-06-27T07:19:27.241Z,33.14
2018-06-27T07:21:56.467Z,32.29
2018-06-27T07:24:25.525Z,32.15
2018-06-27T07:26:54.840Z,32.33
2018-06-27T07:29:23.777Z,32.49
2018-06-27T07:31:52.551Z,32.68
2018-06-27T07:34:21.287Z,32.67
2018-06-27T07:36:50.303Z,32.59
2018-06-27T07:39:19.245Z,32.13
2018-06-27T07:41:48.188Z,32.68
2018-06-27T07:44:17.285Z,31.54
2018-06-27T07:46:46.342Z,31.98
2018-06-27T07:49:15.360Z,32.46
2018-06-27T07:51:44.369Z,32.36
2018-06-27T07:54:13.316Z,32.40
2018-06-27T07:56:42.319Z,31.79
2018-06-27T07:59:11.390Z,31.99
2018-06-27T08:01:40.344Z,32.24
2018-06-27T08:04:09.531Z,32.55
2018-06-27T08:06:45.963Z,32.32
2018-06-27T08:09:14.950Z,32.11
2018-06-27T08:11:44.374Z,32.30
2018-06-27T08:14:13.248Z,32.56
2018-06-27T08:16:42.359Z,32.43
2018-06-27T08:19:11.387Z,32.33
2018-06-27T08:21:40.344Z,32.33
2018-06-27T08:24:09.408Z,32.29
2018-06-27T08:26:38.365Z,32.22
2018-06-27T08:29:07.337Z,32.41
2018-06-27T08:31:36.246Z,31.99
2018-06-27T08:34:05.203Z,32.20
2018-06-27T08:36:34.402Z,31.60
2018-06-27T08:39:04.036Z,31.58
2018-06-27T08:41:33.047Z,31.82
2018-06-27T08:44:02.076Z,31.78
2018-06-27T08:46:31.233Z,32.31
2018-06-27T08:49:00.142Z,32.41
2018-06-27T08:51:29.105Z,31.70
2018-06-27T08:53:58.179Z,32.39
2018-06-27T08:56:27.107Z,32.54
2018-06-27T08:58:56.281Z,32.36
2018-06-27T09:01:25.474Z,31.65
2018-06-27T09:03:54.520Z,32.23
2018-06-27T09:06:23.621Z,32.49
2018-06-27T09:08:53.183Z,31.63
2018-06-27T09:11:22.218Z,32.02
2018-06-27T09:13:51.300Z,31.78
2018-06-27T09:16:20.222Z,31.84
2018-06-27T09:18:49.171Z,32.46
2018-06-27T09:21:18.401Z,31.72
2018-06-27T09:23:47.287Z,31.88
2018-06-27T09:26:16.195Z,32.63
2018-06-27T09:28:45.075Z,32.05
2018-06-27T09:31:14.122Z,31.76
2018-06-27T09:33:43.200Z,31.89
2018-06-27T09:36:12.244Z,32.36
2018-06-27T09:38:41.088Z,32.07
2018-06-27T09:41:10.016Z,32.47
2018-06-27T09:43:38.885Z,32.07
2018-06-27T09:46:07.715Z,31.95
2018-06-27T09:48:36.706Z,32.20
2018-06-27T09:51:05.792Z,32.16
2018-06-27T09:53:34.995Z,32.57
2018-06-27T09:56:04.227Z,32.19
2018-06-27T09:58:33.450Z,31.99
2018-06-27T10:01:02.485Z,32.75
2018-06-27T10:03:31.534Z,32.36
2018-06-27T10:06:00.571Z,32.75
2018-06-27T10:08:29.538Z,32.09
2018-06-27T10:10:58.382Z,32.36
2018-06-27T10:13:27.489Z,31.98
2018-06-27T10:15:56.479Z,32.95
2018-06-27T10:18:25.780Z,32.23
2018-06-27T10:20:55.086Z,32.25
2018-06-27T10:23:24.214Z,32.79
2018-06-27T10:25:53.170Z,32.78
2018-06-27T10:28:22.327Z,32.96
2018-06-27T10:30:51.531Z,32.56
2018-06-27T10:33:20.476Z,32.51
2018-06-27T10:35:49.607Z,33.26
2018-06-27T10:38:18.488Z,32.49
2018-06-27T10:40:47.427Z,32.49
2018-06-27T10:43:16.452Z,32.68
2018-06-27T10:45:45.438Z,32.60
2018-06-27T10:48:14.714Z,32.69
2018-06-27T10:50:43.866Z,32.73
2018-06-27T10:53:13.024Z,32.95
2018-06-27T10:55:42.062Z,33.17
2018-06-27T10:58:11.169Z,32.77
2018-06-27T11:00:40.163Z,33.21
2018-06-27T11:03:09.212Z,33.25
2018-06-27T11:05:38.162Z,33.47
2018-06-27T11:08:07.283Z,33.51
2018-06-27T11:10:36.354Z,33.00
2018-06-27T11:13:05.220Z,33.45
2018-06-27T11:15:34.749Z,33.08
2018-06-27T11:18:03.968Z,33.07
2018-06-27T11:20:32.905Z,32.85
2018-06-27T11:23:02.022Z,32.86
2018-06-27T11:25:31.077Z,33.67
2018-06-27T11:27:59.943Z,33.75
2018-06-27T11:30:28.940Z,32.95
2018-06-27T11:32:58.080Z,32.97
2018-06-27T11:35:27.133Z,33.32
2018-06-27T11:37:56.206Z,33.39
2018-06-27T11:40:25.185Z,33.55
2018-06-27T11:42:54.232Z,33.14
2018-06-27T11:45:23.281Z,33.45
2018-06-27T11:47:52.223Z,33.28
2018-06-27T11:50:21.109Z,33.55
2018-06-27T11:52:50.325Z,33.14
2018-06-27T11:55:19.311Z,33.25
2018-06-27T11:57:48.275Z,33.76
2018-06-27T12:00:17.455Z,33.27
2018-06-27T12:02:46.467Z,34.01
2018-06-27T12:05:15.601Z,33.64
2018-06-27T12:07:44.594Z,34.27
2018-06-27T12:10:13.485Z,33.96
2018-06-27T12:12:42.477Z,33.98
2018-06-27T12:15:11.517Z,33.80
2018-06-27T12:17:40.455Z,33.95
2018-06-27T12:20:09.342Z,34.24
2018-06-27T12:22:38.364Z,33.45
2018-06-27T12:25:07.359Z,34.00
2018-06-27T12:27:36.341Z,34.02
2018-06-27T12:30:05.754Z,33.90
2018-06-27T12:32:34.698Z,33.72
2018-06-27T12:35:03.630Z,33.67
2018-06-27T12:37:32.629Z,33.57
2018-06-27T12:40:01.811Z,33.93
2018-06-27T12:42:30.553Z,34.42
2018-06-27T12:44:59.501Z,34.17
2018-06-27T12:47:28.542Z,34.04
2018-06-27T12:49:57.601Z,34.33
2018-06-27T12:52:26.704Z,34.11
2018-06-27T12:55:03.657Z,34.30
2018-06-27T12:57:33.546Z,34.29
2018-06-27T13:00:02.908Z,34.05
2018-06-27T13:02:31.888Z,34.83
2018-06-27T13:05:01.001Z,34.57
2018-06-27T13:07:30.062Z,33.83
2018-06-27T13:09:58.968Z,34.01
2018-06-27T13:12:27.947Z,33.89
2018-06-27T13:14:56.855Z,34.03
2018-06-27T13:17:25.762Z,34.62
2018-06-27T13:19:54.791Z,34.71
2018-06-27T13:22:23.682Z,33.92
2018-06-27T13:24:52.671Z,34.46
2018-06-27T13:27:21.794Z,34.29
2018-06-27T13:29:50.814Z,34.72
2018-06-27T13:32:19.946Z,34.34
2018-06-27T13:34:49.116Z,34.18
2018-06-27T13:37:18.065Z,34.22
2018-06-27T13:39:47.039Z,34.64
2018-06-27T13:42:16.089Z,34.68
2018-06-27T13:44:44.990Z,34.58
2018-06-27T13:47:14.010Z,34.25
2018-06-27T13:49:42.977Z,34.08
2018-06-27T13:52:11.899Z,34.66
2018-06-27T13:54:43.635Z,33.93
2018-06-27T13:57:13.389Z,34.62
2018-06-27T13:59:42.404Z,34.70
2018-06-27T14:02:11.317Z,34.77
2018-06-27T14:04:40.319Z,34.61
2018-06-27T14:07:09.255Z,34.65
2018-06-27T14:09:38.565Z,34.58
2018-06-27T14:12:07.485Z,34.92
2018-06-27T14:14:36.361Z,34.86
2018-06-27T14:17:05.393Z,34.72
2018-06-27T14:19:34.581Z,34.40
2018-06-27T14:22:03.746Z,34.41
2018-06-27T14:24:33.174Z,34.25
2018-06-27T14:27:02.259Z,34.25
2018-06-27T14:29:31.479Z,34.90
2018-06-27T14:32:00.584Z,34.95
2018-06-27T14:34:29.576Z,34.92
2018-06-27T14:36:58.687Z,35.11
2018-06-27T14:39:27.873Z,34.82
2018-06-27T14:41:56.960Z,34.69
2018-06-27T14:44:26.012Z,34.60
2018-06-27T14:46:55.227Z,35.23
2018-06-27T14:49:24.308Z,35.07
2018-06-27T14:51:53.616Z,35.26
2018-06-27T14:54:22.721Z,34.49
2018-06-27T14:56:51.703Z,34.70
2018-06-27T14:59:20.723Z,35.34
2018-06-27T15:01:49.617Z,35.25
2018-06-27T15:04:18.633Z,34.89
2018-06-27T15:06:47.656Z,34.93
2018-06-27T15:09:16.724Z,34.49
2018-06-27T15:11:45.814Z,35.23
2018-06-27T15:14:14.816Z,35.21
2018-06-27T15:16:44.019Z,34.83
2018-06-27T15:19:13.260Z,34.90
2018-06-27T15:21:42.546Z,34.57
2018-06-27T15:24:11.593Z,35.23
2018-06-27T15:26:40.528Z,35.45
2018-06-27T15:29:09.712Z,34.60
2018-06-27T15:31:38.749Z,34.76
2018-06-27T15:34:07.966Z,35.15
2018-06-27T15:36:36.991Z,35.16
2018-06-27T15:39:08.281Z,35.06
2018-06-27T15:41:37.832Z,34.91
2018-06-27T15:44:07.497Z,34.66
2018-06-27T15:46:36.917Z,34.63
2018-06-27T15:49:07.747Z,34.82
2018-06-27T15:51:36.847Z,34.78
2018-06-27T15:54:06.010Z,34.96
2018-06-27T15:56:35.138Z,34.85
2018-06-27T15:59:04.142Z,34.81
2018-06-27T16:01:33.181Z,34.65
2018-06-27T16:04:02.002Z,34.86
2018-06-27T16:06:31.168Z,35.37
2018-06-27T16:09:00.163Z,34.73
2018-06-27T16:11:29.279Z,35.13
2018-06-27T16:13:58.334Z,35.11
2018-06-27T16:16:27.405Z,34.86
2018-06-27T16:18:56.624Z,34.75
2018-06-27T16:21:25.645Z,35.31
2018-06-27T16:23:54.802Z,35.42
2018-06-27T16:26:23.761Z,35.61
2018-06-27T16:28:52.982Z,35.27
2018-06-27T16:31:22.182Z,35.43
2018-06-27T16:33:51.133Z,35.39
2018-06-27T16:36:20.203Z,35.65
2018-06-27T16:38:49.130Z,35.34
2018-06-27T16:41:18.262Z,34.81
2018-06-27T16:43:47.453Z,35.32
2018-06-27T16:46:16.719Z,34.71
2018-06-27T16:48:45.964Z,34.58
2018-06-27T16:51:15.132Z,35.45
2018-06-27T16:53:44.332Z,35.58
2018-06-27T16:56:13.406Z,35.50
2018-06-27T16:58:42.659Z,34.80
2018-06-27T17:01:11.788Z,35.33
2018-06-27T17:03:40.774Z,34.34
2018-06-27T17:06:09.772Z,35.76
2018-06-27T17:08:39.047Z,34.90
2018-06-27T17:11:08.101Z,35.18
2018-06-27T17:13:37.303Z,34.92
2018-06-27T17:16:06.536Z,34.84
2018-06-27T17:18:35.794Z,35.24
2018-06-27T17:21:05.087Z,34.72
2018-06-27T17:23:34.355Z,34.76
2018-06-27T17:26:03.324Z,34.68
2018-06-27T17:28:32.724Z,34.85
2018-06-27T17:31:03.471Z,34.64
2018-06-27T17:33:33.343Z,35.00
2018-06-27T17:36:02.128Z,35.45
2018-06-27T17:38:31.001Z,34.84
2018-06-27T17:40:59.926Z,35.00
2018-06-27T17:43:28.907Z,35.83
2018-06-27T17:45:57.867Z,35.72
2018-06-27T17:48:26.693Z,35.15
2018-06-27T17:50:55.987Z,35.85
2018-06-27T17:53:24.884Z,35.90
2018-06-27T17:55:53.643Z,35.89
2018-06-27T17:58:22.769Z,35.29
2018-06-27T18:00:51.863Z,36.09
2018-06-27T18:03:21.105Z,35.44
2018-06-27T18:05:50.164Z,35.22
2018-06-27T18:08:19.210Z,35.41
2018-06-27T18:10:48.522Z,36.00
2018-06-27T18:13:17.640Z,35.11
2018-06-27T18:15:47.204Z,35.16
2018-06-27T18:18:16.211Z,35.13
2018-06-27T18:20:45.340Z,35.56
2018-06-27T18:23:14.618Z,35.09
2018-06-27T18:25:43.601Z,35.27
2018-06-27T18:28:12.678Z,34.83
2018-06-27T18:30:41.735Z,35.54
2018-06-27T18:33:11.010Z,35.41
2018-06-27T18:35:40.255Z,35.36
2018-06-27T18:38:09.344Z,35.22
2018-06-27T18:40:38.505Z,34.66
2018-06-27T18:43:07.531Z,35.35
2018-06-27T18:45:36.667Z,35.36
2018-06-27T18:48:05.930Z,35.33
2018-06-27T18:50:34.995Z,35.64
2018-06-27T18:53:03.901Z,34.79
2018-06-27T18:55:33.058Z,34.81
2018-06-27T18:58:02.171Z,34.86
2018-06-27T19:00:31.254Z,35.23
2018-06-27T19:03:00.398Z,34.54
2018-06-27T19:05:29.656Z,34.99
2018-06-27T19:07:58.975Z,34.69
2018-06-27T19:10:27.990Z,35.43
2018-06-27T19:12:57.043Z,34.94
2018-06-27T19:15:26.143Z,34.69
2018-06-27T19:17:55.406Z,34.57
2018-06-27T19:20:24.458Z,34.70
2018-06-27T19:22:53.486Z,34.90
2018-06-27T19:25:22.952Z,34.41
2018-06-27T19:27:52.140Z,34.66
2018-06-27T19:30:21.401Z,35.20
2018-06-27T19:32:50.641Z,34.77
2018-06-27T19:35:19.827Z,35.24
2018-06-27T19:37:49.163Z,35.28
2018-06-27T19:40:18.555Z,34.48
2018-06-27T19:42:47.654Z,34.60
2018-06-27T19:45:16.835Z,34.29
2018-06-27T19:47:46.281Z,35.10
2018-06-27T19:50:15.742Z,35.07
2018-06-27T19:52:45.035Z,34.20
2018-06-27T19:55:14.300Z,34.90
2018-06-27T19:57:43.458Z,34.17
2018-06-27T20:00:12.479Z,34.97
2018-06-27T20:02:41.911Z,34.78
2018-06-27T20:05:11.223Z,34.42
2018-06-27T20:07:40.520Z,34.76
2018-06-27T20:10:09.695Z,34.41
2018-06-27T20:12:39.863Z,34.29
2018-06-27T20:15:09.340Z,34.72
2018-06-27T20:17:38.396Z,34.75
2018-06-27T20:20:08.615Z,34.70
2018-06-27T20:22:37.953Z,34.65
2018-06-27T20:25:07.533Z,34.84
2018-06-27T20:27:37.110Z,34.71
2018-06-27T20:30:06.879Z,34.58
2018-06-27T20:32:36.107Z,34.38
2018-06-27T20:35:05.579Z,34.80
2018-06-27T20:37:34.834Z,35.05
2018-06-27T20:40:03.954Z,34.18
2018-06-27T20:42:33.181Z,34.68
2018-06-27T20:45:02.882Z,34.02
2018-06-27T20:47:31.784Z,33.92
2018-06-27T20:50:01.010Z,34.58
2018-06-27T20:52:30.132Z,34.17
2018-06-27T20:54:59.095Z,34.50
2018-06-27T20:57:28.499Z,33.87
2018-06-27T20:59:57.655Z,33.91
2018-06-27T21:02:26.865Z,34.65
2018-06-27T21:04:56.068Z,34.45
2018-06-27T21:07:25.172Z,34.18
2018-06-27T21:09:54.211Z,34.72
2018-06-27T21:12:23.390Z,34.05
2018-06-27T21:14:52.609Z,33.99
2018-06-27T21:17:21.796Z,33.92
2018-06-27T21:19:51.075Z,33.85
2018-06-27T21:22:20.250Z,33.73
2018-06-27T21:24:49.468Z,34.69
2018-06-27T21:27:18.632Z,34.10
2018-06-27T21:29:47.906Z,34.10
2018-06-27T21:32:16.963Z,34.46
2018-06-27T21:34:46.799Z,33.75
2018-06-27T21:37:15.905Z,33.91
2018-06-27T21:39:44.967Z,34.50
2018-06-27T21:42:14.314Z,33.83
2018-06-27T21:44:43.421Z,34.14
2018-06-27T21:47:12.451Z,33.81
2018-06-27T21:49:41.624Z,34.15
2018-06-27T21:52:10.595Z,34.39
2018-06-27T21:54:39.815Z,34.29
2018-06-27T21:57:08.943Z,34.09
2018-06-27T21:59:38.143Z,34.27
2018-06-27T22:02:07.466Z,33.68
2018-06-27T22:04:36.843Z,34.13
2018-06-27T22:07:06.261Z,34.34
2018-06-27T22:09:35.495Z,34.20
2018-06-27T22:12:04.647Z,34.16
2018-06-27T22:14:33.853Z,33.66
2018-06-27T22:17:03.197Z,33.69
2018-06-27T22:19:32.526Z,34.27
2018-06-27T22:22:01.615Z,34.31
2018-06-27T22:24:30.810Z,33.76
2018-06-27T22:27:00.205Z,34.28
2018-06-27T22:29:29.524Z,34.20
2018-06-27T22:31:58.552Z,33.96
2018-06-27T22:34:27.642Z,33.43
2018-06-27T22:36:56.676Z,33.61
2018-06-27T22:39:25.960Z,33.33
2018-06-27T22:41:55.096Z,34.15
2018-06-27T22:44:24.118Z,33.57
2018-06-27T22:46:53.253Z,33.89
2018-06-27T22:49:22.475Z,34.14
2018-06-27T22:51:51.346Z,33.97
2018-06-27T22:54:20.404Z,33.75
2018-06-27T22:56:49.347Z,33.30
2018-06-27T22:59:18.330Z,34.04
2018-06-27T23:01:47.336Z,33.83
2018-06-27T23:04:16.469Z,33.70
2018-06-27T23:06:45.484Z,33.84
2018-06-27T23:09:14.322Z,34.22
2018-06-27T23:11:43.379Z,33.97
2018-06-27T23:14:12.350Z,33.00
2018-06-27T23:16:41.552Z,33.11
2018-06-27T23:19:10.651Z,34.04
2018-06-27T23:21:39.679Z,33.42
2018-06-27T23:24:09.195Z,33.52
2018-06-27T23:26:39.314Z,34.22
2018-06-27T23:29:09.234Z,33.67
2018-06-27T23:31:39.027Z,34.23
2018-06-27T23:34:08.855Z,33.99
2018-06-27T23:36:38.707Z,33.95
2018-06-27T23:39:11.538Z,34.13
2018-06-27T23:41:41.822Z,34.13
2018-06-27T23:44:10.859Z,33.66
2018-06-27T23:46:40.166Z,33.42
2018-06-27T23:49:09.525Z,34.14
2018-06-27T23:51:38.967Z,34.08
2018-06-27T23:54:08.586Z,33.62
2018-06-27T23:56:38.394Z,33.55
2018-06-27T23:59:08.305Z,33.21
